sensor_id;sensor_type;location;lat;lon;timestamp;pressure;altitude;pressure_sealevel;temperature;humidity
57290;BME280;43523;53.022;-1.178;2023-04-10T00:00:07;100575.94;;;7.23;100.00
57290;BME280;43523;53.022;-1.178;2023-04-10T00:01:11;100570.52;;;7.13;99.81
57290;BME280;43523;53.022;-1.178;2023-04-10T00:02:13;100567.52;;;7.20;99.58
57290;BME280;43523;53.022;-1.178;2023-04-10T00:03:15;100570.69;;;7.05;100.00
57290;BME280;43523;53.022;-1.178;2023-04-10T00:04:18;100561.25;;;7.19;100.00
57290;BME280;43523;53.022;-1.178;2023-04-10T00:05:20;100558.06;;;7.17;100.00
57290;BME280;43523;53.022;-1.178;2023-04-10T00:06:23;100548.97;;;7.23;100.00
57290;BME280;43523;53.022;-1.178;2023-04-10T00:07:25;100547.93;;;7.42;100.00
57290;BME280;43523;53.022;-1.178;2023-04-10T00:08:28;100547.22;;;7.52;100.00
57290;BME280;43523;53.022;-1.178;2023-04-10T00:09:30;100544.85;;;7.18;100.00
57290;BME280;43523;53.022;-1.178;2023-04-10T00:10:33;100544.37;;;7.28;100.00
57290;BME280;43523;53.022;-1.178;2023-04-10T00:11:36;100535.20;;;7.35;100.00
57290;BME280;43523;53.022;-1.178;2023-04-10T00:12:38;100530.80;;;7.43;100.00
57290;BME280;43523;53.022;-1.178;2023-04-10T00:13:40;100533.61;;;7.35;98.68
57290;BME280;43523;53.022;-1.178;2023-04-10T00:14:44;100530.94;;;7.41;98.90
57290;BME280;43523;53.022;-1.178;2023-04-10T00:15:46;100529.89;;;7.47;99.37
57290;BME280;43523;53.022;-1.178;2023-04-10T00:16:49;100529.19;;;7.15;98.84
57290;BME280;43523;53.022;-1.178;2023-04-10T00:17:51;100530.87;;;7.42;99.34
57290;BME280;43523;53.022;-1.178;2023-04-10T00:18:53;100528.50;;;7.41;98.67
57290;BME280;43523;53.022;-1.178;2023-04-10T00:19:56;100524.76;;;7.39;99.13
57290;BME280;43523;53.022;-1.178;2023-04-10T00:20:58;100523.08;;;7.47;97.74
57290;BME280;43523;53.022;-1.178;2023-04-10T00:22:00;100521.67;;;7.12;100.00
57290;BME280;43523;53.022;-1.178;2023-04-10T00:23:02;100519.17;;;7.31;100.00
57290;BME280;43523;53.022;-1.178;2023-04-10T00:24:05;100519.40;;;7.04;100.00
57290;BME280;43523;53.022;-1.178;2023-04-10T00:25:07;100518.05;;;6.86;100.00
57290;BME280;43523;53.022;-1.178;2023-04-10T00:26:09;100512.22;;;6.88;100.00
57290;BME280;43523;53.022;-1.178;2023-04-10T00:27:12;100509.82;;;7.14;100.00
57290;BME280;43523;53.022;-1.178;2023-04-10T00:28:15;100511.73;;;7.04;100.00
57290;BME280;43523;53.022;-1.178;2023-04-10T00:29:18;100508.68;;;6.87;100.00
57290;BME280;43523;53.022;-1.178;2023-04-10T00:30:20;100503.97;;;7.07;100.00
57290;BME280;43523;53.022;-1.178;2023-04-10T00:31:22;100505.78;;;7.32;100.00
57290;BME280;43523;53.022;-1.178;2023-04-10T00:32:24;100499.56;;;7.49;100.00
57290;BME280;43523;53.022;-1.178;2023-04-10T00:33:27;100504.18;;;6.73;100.00
57290;BME280;43523;53.022;-1.178;2023-04-10T00:34:29;100500.12;;;7.12;100.00
57290;BME280;43523;53.022;-1.178;2023-04-10T00:35:32;100496.84;;;7.09;100.00
57290;BME280;43523;53.022;-1.178;2023-04-10T00:36:34;100493.51;;;6.50;100.00
57290;BME280;43523;53.022;-1.178;2023-04-10T00:37:36;100494.37;;;6.87;100.00
57290;BME280;43523;53.022;-1.178;2023-04-10T00:38:39;100489.44;;;6.96;100.00
57290;BME280;43523;53.022;-1.178;2023-04-10T00:39:41;100489.00;;;6.56;100.00
57290;BME280;43523;53.022;-1.178;2023-04-10T00:40:44;100486.16;;;6.57;100.00
57290;BME280;43523;53.022;-1.178;2023-04-10T00:41:46;100486.22;;;6.78;100.00
57290;BME280;43523;53.022;-1.178;2023-04-10T00:42:48;100485.79;;;6.48;100.00
57290;BME280;43523;53.022;-1.178;2023-04-10T00:43:54;100481.28;;;6.41;100.00
57290;BME280;43523;53.022;-1.178;2023-04-10T00:44:57;100478.06;;;6.92;100.00
57290;BME280;43523;53.022;-1.178;2023-04-10T00:45:59;100476.42;;;6.70;100.00
57290;BME280;43523;53.022;-1.178;2023-04-10T00:47:02;100478.09;;;6.39;100.00
57290;BME280;43523;53.022;-1.178;2023-04-10T00:48:05;100480.76;;;6.65;100.00
57290;BME280;43523;53.022;-1.178;2023-04-10T00:49:08;100478.78;;;6.52;100.00
57290;BME280;43523;53.022;-1.178;2023-04-10T00:50:11;100474.47;;;6.81;100.00
57290;BME280;43523;53.022;-1.178;2023-04-10T00:51:13;100474.19;;;6.87;100.00
57290;BME280;43523;53.022;-1.178;2023-04-10T00:52:16;100473.18;;;6.61;100.00
57290;BME280;43523;53.022;-1.178;2023-04-10T00:53:18;100468.85;;;6.60;100.00
57290;BME280;43523;53.022;-1.178;2023-04-10T00:54:21;100471.45;;;6.60;100.00
57290;BME280;43523;53.022;-1.178;2023-04-10T00:55:24;100468.62;;;6.65;100.00
57290;BME280;43523;53.022;-1.178;2023-04-10T00:56:28;100473.31;;;6.57;100.00
57290;BME280;43523;53.022;-1.178;2023-04-10T00:57:32;100471.05;;;6.33;100.00
57290;BME280;43523;53.022;-1.178;2023-04-10T00:58:35;100467.66;;;6.81;100.00
57290;BME280;43523;53.022;-1.178;2023-04-10T00:59:38;100469.57;;;6.49;100.00
57290;BME280;43523;53.022;-1.178;2023-04-10T01:00:40;100465.25;;;7.00;100.00
57290;BME280;43523;53.022;-1.178;2023-04-10T01:01:44;100466.81;;;6.74;100.00
57290;BME280;43523;53.022;-1.178;2023-04-10T01:02:46;100464.75;;;6.81;100.00
57290;BME280;43523;53.022;-1.178;2023-04-10T01:03:48;100463.45;;;7.03;100.00
57290;BME280;43523;53.022;-1.178;2023-04-10T01:04:50;100470.03;;;6.70;100.00
57290;BME280;43523;53.022;-1.178;2023-04-10T01:06:04;100466.15;;;6.71;100.00
57290;BME280;43523;53.022;-1.178;2023-04-10T01:07:16;100466.05;;;6.75;100.00
57290;BME280;43523;53.022;-1.178;2023-04-10T01:08:32;100463.01;;;6.82;100.00
57290;BME280;43523;53.022;-1.178;2023-04-10T01:09:43;100470.67;;;5.99;100.00
57290;BME280;43523;53.022;-1.178;2023-04-10T01:10:50;100469.18;;;6.31;100.00
57290;BME280;43523;53.022;-1.178;2023-04-10T01:12:01;100470.36;;;6.27;100.00
57290;BME280;43523;53.022;-1.178;2023-04-10T01:13:13;100468.17;;;6.38;100.00
57290;BME280;43523;53.022;-1.178;2023-04-10T01:14:26;100465.79;;;6.48;100.00
57290;BME280;43523;53.022;-1.178;2023-04-10T01:15:39;100470.81;;;6.47;100.00
57290;BME280;43523;53.022;-1.178;2023-04-10T01:16:48;100472.50;;;6.51;100.00
57290;BME280;43523;53.022;-1.178;2023-04-10T01:17:58;100471.18;;;6.52;100.00
57290;BME280;43523;53.022;-1.178;2023-04-10T01:19:17;100469.08;;;6.24;100.00
57290;BME280;43523;53.022;-1.178;2023-04-10T01:20:29;100465.10;;;5.68;100.00
57290;BME280;43523;53.022;-1.178;2023-04-10T01:21:33;100462.58;;;6.34;100.00
57290;BME280;43523;53.022;-1.178;2023-04-10T01:22:48;100458.40;;;6.14;100.00
57290;BME280;43523;53.022;-1.178;2023-04-10T01:24:06;100457.41;;;6.05;100.00
57290;BME280;43523;53.022;-1.178;2023-04-10T01:25:38;100461.71;;;6.11;100.00
57290;BME280;43523;53.022;-1.178;2023-04-10T01:26:54;100456.55;;;6.45;100.00
57290;BME280;43523;53.022;-1.178;2023-04-10T01:28:25;100457.70;;;5.74;100.00
57290;BME280;43523;53.022;-1.178;2023-04-10T01:29:29;100457.07;;;5.44;100.00
57290;BME280;43523;53.022;-1.178;2023-04-10T01:30:34;100452.79;;;5.56;100.00
57290;BME280;43523;53.022;-1.178;2023-04-10T01:31:41;100449.51;;;5.51;100.00
57290;BME280;43523;53.022;-1.178;2023-04-10T01:32:47;100449.50;;;6.13;100.00
57290;BME280;43523;53.022;-1.178;2023-04-10T01:33:54;100443.44;;;6.16;100.00
57290;BME280;43523;53.022;-1.178;2023-04-10T01:35:00;100440.32;;;6.00;100.00
57290;BME280;43523;53.022;-1.178;2023-04-10T01:36:08;100444.56;;;5.85;100.00
57290;BME280;43523;53.022;-1.178;2023-04-10T01:37:17;100444.89;;;5.82;100.00
57290;BME280;43523;53.022;-1.178;2023-04-10T01:38:23;100439.96;;;5.77;100.00
57290;BME280;43523;53.022;-1.178;2023-04-10T01:39:26;100439.02;;;5.95;100.00
57290;BME280;43523;53.022;-1.178;2023-04-10T01:40:32;100439.18;;;5.74;100.00
57290;BME280;43523;53.022;-1.178;2023-04-10T01:41:36;100438.09;;;5.38;100.00
57290;BME280;43523;53.022;-1.178;2023-04-10T01:42:47;100433.42;;;5.65;100.00
57290;BME280;43523;53.022;-1.178;2023-04-10T01:43:51;100429.25;;;5.71;100.00
57290;BME280;43523;53.022;-1.178;2023-04-10T01:44:55;100424.99;;;5.84;100.00
57290;BME280;43523;53.022;-1.178;2023-04-10T01:46:00;100421.06;;;6.30;100.00
57290;BME280;43523;53.022;-1.178;2023-04-10T01:47:04;100417.61;;;5.71;100.00
57290;BME280;43523;53.022;-1.178;2023-04-10T01:48:07;100413.53;;;5.84;100.00
57290;BME280;43523;53.022;-1.178;2023-04-10T01:49:11;100410.63;;;6.29;100.00
57290;BME280;43523;53.022;-1.178;2023-04-10T01:50:14;100414.52;;;5.65;100.00
57290;BME280;43523;53.022;-1.178;2023-04-10T01:51:17;100412.61;;;6.18;100.00
57290;BME280;43523;53.022;-1.178;2023-04-10T01:52:20;100407.05;;;6.25;100.00
57290;BME280;43523;53.022;-1.178;2023-04-10T01:53:23;100402.42;;;6.04;100.00
57290;BME280;43523;53.022;-1.178;2023-04-10T01:54:27;100407.01;;;5.84;100.00
57290;BME280;43523;53.022;-1.178;2023-04-10T01:55:30;100404.51;;;6.29;100.00
57290;BME280;43523;53.022;-1.178;2023-04-10T01:56:33;100406.56;;;5.86;100.00
57290;BME280;43523;53.022;-1.178;2023-04-10T01:57:36;100402.57;;;5.86;100.00
57290;BME280;43523;53.022;-1.178;2023-04-10T01:58:38;100408.12;;;5.58;100.00
57290;BME280;43523;53.022;-1.178;2023-04-10T01:59:41;100406.26;;;5.90;100.00
57290;BME280;43523;53.022;-1.178;2023-04-10T02:00:45;100405.36;;;6.42;100.00
57290;BME280;43523;53.022;-1.178;2023-04-10T02:01:47;100400.93;;;6.24;100.00
57290;BME280;43523;53.022;-1.178;2023-04-10T02:02:49;100408.67;;;6.23;100.00
57290;BME280;43523;53.022;-1.178;2023-04-10T02:03:51;100405.79;;;5.71;100.00
57290;BME280;43523;53.022;-1.178;2023-04-10T02:04:54;100404.99;;;6.12;100.00
57290;BME280;43523;53.022;-1.178;2023-04-10T02:06:05;100402.51;;;5.92;100.00
57290;BME280;43523;53.022;-1.178;2023-04-10T02:07:12;100396.23;;;5.40;100.00
57290;BME280;43523;53.022;-1.178;2023-04-10T02:08:23;100396.36;;;5.69;100.00
57290;BME280;43523;53.022;-1.178;2023-04-10T02:09:34;100394.18;;;6.04;100.00
57290;BME280;43523;53.022;-1.178;2023-04-10T02:10:44;100393.11;;;5.55;100.00
57290;BME280;43523;53.022;-1.178;2023-04-10T02:11:56;100391.69;;;5.72;100.00
57290;BME280;43523;53.022;-1.178;2023-04-10T02:13:02;100392.54;;;5.59;100.00
57290;BME280;43523;53.022;-1.178;2023-04-10T02:14:10;100391.38;;;5.84;100.00
57290;BME280;43523;53.022;-1.178;2023-04-10T02:15:14;100387.98;;;5.32;100.00
57290;BME280;43523;53.022;-1.178;2023-04-10T02:16:18;100383.90;;;5.15;100.00
57290;BME280;43523;53.022;-1.178;2023-04-10T02:17:28;100385.17;;;5.57;100.00
57290;BME280;43523;53.022;-1.178;2023-04-10T02:18:31;100381.86;;;5.30;100.00
57290;BME280;43523;53.022;-1.178;2023-04-10T02:19:36;100380.89;;;5.24;100.00
57290;BME280;43523;53.022;-1.178;2023-04-10T02:20:40;100380.14;;;5.57;100.00
57290;BME280;43523;53.022;-1.178;2023-04-10T02:21:43;100375.76;;;5.78;100.00
57290;BME280;43523;53.022;-1.178;2023-04-10T02:22:46;100373.90;;;4.90;100.00
57290;BME280;43523;53.022;-1.178;2023-04-10T02:23:49;100374.33;;;4.98;100.00
57290;BME280;43523;53.022;-1.178;2023-04-10T02:24:52;100372.62;;;5.38;100.00
57290;BME280;43523;53.022;-1.178;2023-04-10T02:25:55;100372.94;;;5.35;100.00
57290;BME280;43523;53.022;-1.178;2023-04-10T02:26:57;100370.70;;;5.59;100.00
57290;BME280;43523;53.022;-1.178;2023-04-10T02:28:03;100367.67;;;5.18;100.00
57290;BME280;43523;53.022;-1.178;2023-04-10T02:29:06;100367.63;;;5.10;100.00
57290;BME280;43523;53.022;-1.178;2023-04-10T02:30:09;100363.73;;;5.14;100.00
57290;BME280;43523;53.022;-1.178;2023-04-10T02:31:12;100366.88;;;5.43;100.00
57290;BME280;43523;53.022;-1.178;2023-04-10T02:32:15;100364.46;;;5.33;100.00
57290;BME280;43523;53.022;-1.178;2023-04-10T02:33:17;100364.59;;;5.85;100.00
57290;BME280;43523;53.022;-1.178;2023-04-10T02:34:19;100365.15;;;5.25;100.00
57290;BME280;43523;53.022;-1.178;2023-04-10T02:35:21;100362.25;;;5.36;100.00
57290;BME280;43523;53.022;-1.178;2023-04-10T02:36:24;100358.04;;;5.17;100.00
57290;BME280;43523;53.022;-1.178;2023-04-10T02:37:26;100359.78;;;5.27;100.00
57290;BME280;43523;53.022;-1.178;2023-04-10T02:38:28;100353.82;;;5.28;100.00
57290;BME280;43523;53.022;-1.178;2023-04-10T02:39:31;100351.92;;;5.47;100.00
57290;BME280;43523;53.022;-1.178;2023-04-10T02:40:34;100353.24;;;5.66;100.00
57290;BME280;43523;53.022;-1.178;2023-04-10T02:41:36;100351.20;;;5.46;100.00
57290;BME280;43523;53.022;-1.178;2023-04-10T02:42:38;100352.17;;;5.46;100.00
57290;BME280;43523;53.022;-1.178;2023-04-10T02:43:40;100352.22;;;5.25;100.00
57290;BME280;43523;53.022;-1.178;2023-04-10T02:44:44;100348.07;;;5.16;100.00
57290;BME280;43523;53.022;-1.178;2023-04-10T02:45:46;100344.72;;;4.88;100.00
57290;BME280;43523;53.022;-1.178;2023-04-10T02:46:48;100342.81;;;5.21;100.00
57290;BME280;43523;53.022;-1.178;2023-04-10T02:47:51;100338.92;;;5.70;100.00
57290;BME280;43523;53.022;-1.178;2023-04-10T02:48:54;100339.92;;;5.37;100.00
57290;BME280;43523;53.022;-1.178;2023-04-10T02:49:56;100331.47;;;5.83;100.00
57290;BME280;43523;53.022;-1.178;2023-04-10T02:50:59;100330.73;;;5.46;100.00
57290;BME280;43523;53.022;-1.178;2023-04-10T02:52:01;100330.24;;;5.30;100.00
57290;BME280;43523;53.022;-1.178;2023-04-10T02:53:04;100325.12;;;5.75;100.00
57290;BME280;43523;53.022;-1.178;2023-04-10T02:54:06;100322.83;;;5.94;100.00
57290;BME280;43523;53.022;-1.178;2023-04-10T02:55:09;100320.58;;;6.06;100.00
57290;BME280;43523;53.022;-1.178;2023-04-10T02:56:12;100316.72;;;5.89;100.00
57290;BME280;43523;53.022;-1.178;2023-04-10T02:57:15;100314.35;;;5.58;100.00
57290;BME280;43523;53.022;-1.178;2023-04-10T02:58:18;100305.61;;;5.31;100.00
57290;BME280;43523;53.022;-1.178;2023-04-10T02:59:20;100301.83;;;5.59;100.00
57290;BME280;43523;53.022;-1.178;2023-04-10T03:00:22;100296.61;;;5.97;100.00
57290;BME280;43523;53.022;-1.178;2023-04-10T03:01:25;100292.29;;;6.09;100.00
57290;BME280;43523;53.022;-1.178;2023-04-10T03:02:27;100284.32;;;6.29;100.00
57290;BME280;43523;53.022;-1.178;2023-04-10T03:03:29;100278.55;;;5.98;100.00
57290;BME280;43523;53.022;-1.178;2023-04-10T03:04:31;100272.15;;;5.82;100.00
57290;BME280;43523;53.022;-1.178;2023-04-10T03:05:34;100267.71;;;5.81;100.00
57290;BME280;43523;53.022;-1.178;2023-04-10T03:06:36;100261.23;;;5.74;100.00
57290;BME280;43523;53.022;-1.178;2023-04-10T03:07:38;100256.49;;;5.83;100.00
57290;BME280;43523;53.022;-1.178;2023-04-10T03:08:40;100253.22;;;5.99;100.00
57290;BME280;43523;53.022;-1.178;2023-04-10T03:09:44;100248.53;;;5.99;100.00
57290;BME280;43523;53.022;-1.178;2023-04-10T03:10:46;100248.04;;;5.62;100.00
57290;BME280;43523;53.022;-1.178;2023-04-10T03:11:49;100244.91;;;5.51;100.00
57290;BME280;43523;53.022;-1.178;2023-04-10T03:12:51;100243.36;;;5.90;100.00
57290;BME280;43523;53.022;-1.178;2023-04-10T03:13:53;100233.05;;;5.81;100.00
57290;BME280;43523;53.022;-1.178;2023-04-10T03:14:55;100232.22;;;5.14;100.00
57290;BME280;43523;53.022;-1.178;2023-04-10T03:15:58;100230.59;;;5.88;100.00
57290;BME280;43523;53.022;-1.178;2023-04-10T03:17:00;100233.49;;;5.76;100.00
57290;BME280;43523;53.022;-1.178;2023-04-10T03:18:03;100235.60;;;5.90;100.00
57290;BME280;43523;53.022;-1.178;2023-04-10T03:19:05;100233.19;;;5.93;100.00
57290;BME280;43523;53.022;-1.178;2023-04-10T03:20:08;100238.65;;;5.99;100.00
57290;BME280;43523;53.022;-1.178;2023-04-10T03:21:11;100238.58;;;6.08;100.00
57290;BME280;43523;53.022;-1.178;2023-04-10T03:22:13;100233.13;;;5.61;100.00
57290;BME280;43523;53.022;-1.178;2023-04-10T03:23:16;100232.47;;;5.27;100.00
57290;BME280;43523;53.022;-1.178;2023-04-10T03:24:18;100222.75;;;5.48;100.00
57290;BME280;43523;53.022;-1.178;2023-04-10T03:25:20;100220.90;;;5.71;100.00
57290;BME280;43523;53.022;-1.178;2023-04-10T03:26:22;100225.49;;;6.20;100.00
57290;BME280;43523;53.022;-1.178;2023-04-10T03:27:25;100221.20;;;6.10;100.00
57290;BME280;43523;53.022;-1.178;2023-04-10T03:28:27;100225.01;;;5.90;100.00
57290;BME280;43523;53.022;-1.178;2023-04-10T03:29:29;100227.46;;;5.96;100.00
57290;BME280;43523;53.022;-1.178;2023-04-10T03:30:31;100230.83;;;5.61;100.00
57290;BME280;43523;53.022;-1.178;2023-04-10T03:31:34;100230.26;;;5.61;100.00
57290;BME280;43523;53.022;-1.178;2023-04-10T03:32:36;100230.50;;;5.31;100.00
57290;BME280;43523;53.022;-1.178;2023-04-10T03:33:38;100232.32;;;5.54;100.00
57290;BME280;43523;53.022;-1.178;2023-04-10T03:34:39;100227.67;;;6.17;100.00
57290;BME280;43523;53.022;-1.178;2023-04-10T03:35:41;100230.57;;;6.00;100.00
57290;BME280;43523;53.022;-1.178;2023-04-10T03:36:44;100232.66;;;5.58;100.00
57290;BME280;43523;53.022;-1.178;2023-04-10T03:37:46;100231.83;;;5.66;100.00
57290;BME280;43523;53.022;-1.178;2023-04-10T03:38:48;100228.89;;;6.04;100.00
57290;BME280;43523;53.022;-1.178;2023-04-10T03:39:51;100227.72;;;5.91;100.00
57290;BME280;43523;53.022;-1.178;2023-04-10T03:40:53;100226.37;;;5.70;100.00
57290;BME280;43523;53.022;-1.178;2023-04-10T03:41:55;100226.44;;;6.24;100.00
57290;BME280;43523;53.022;-1.178;2023-04-10T03:42:58;100224.35;;;5.76;100.00
57290;BME280;43523;53.022;-1.178;2023-04-10T03:44:00;100223.69;;;6.16;100.00
57290;BME280;43523;53.022;-1.178;2023-04-10T03:45:03;100224.01;;;6.00;100.00
57290;BME280;43523;53.022;-1.178;2023-04-10T03:46:05;100223.31;;;6.25;100.00
57290;BME280;43523;53.022;-1.178;2023-04-10T03:47:08;100221.64;;;6.20;100.00
57290;BME280;43523;53.022;-1.178;2023-04-10T03:48:10;100218.49;;;6.05;100.00
57290;BME280;43523;53.022;-1.178;2023-04-10T03:49:12;100219.87;;;6.00;100.00
57290;BME280;43523;53.022;-1.178;2023-04-10T03:50:15;100218.21;;;6.02;100.00
57290;BME280;43523;53.022;-1.178;2023-04-10T03:51:17;100219.11;;;6.09;100.00
57290;BME280;43523;53.022;-1.178;2023-04-10T03:52:19;100220.01;;;6.17;100.00
57290;BME280;43523;53.022;-1.178;2023-04-10T03:53:21;100220.34;;;5.31;100.00
57290;BME280;43523;53.022;-1.178;2023-04-10T03:54:24;100220.25;;;5.20;100.00
57290;BME280;43523;53.022;-1.178;2023-04-10T03:55:27;100218.57;;;6.12;100.00
57290;BME280;43523;53.022;-1.178;2023-04-10T03:56:29;100211.45;;;5.45;100.00
57290;BME280;43523;53.022;-1.178;2023-04-10T03:57:32;100213.72;;;5.72;100.00
57290;BME280;43523;53.022;-1.178;2023-04-10T03:58:34;100214.55;;;5.89;100.00
57290;BME280;43523;53.022;-1.178;2023-04-10T03:59:36;100214.84;;;5.89;100.00
57290;BME280;43523;53.022;-1.178;2023-04-10T04:00:39;100214.27;;;5.96;100.00
57290;BME280;43523;53.022;-1.178;2023-04-10T04:01:41;100213.41;;;5.51;100.00
57290;BME280;43523;53.022;-1.178;2023-04-10T04:02:44;100210.12;;;5.82;100.00
57290;BME280;43523;53.022;-1.178;2023-04-10T04:03:46;100205.66;;;6.01;100.00
57290;BME280;43523;53.022;-1.178;2023-04-10T04:04:49;100207.85;;;6.05;100.00
57290;BME280;43523;53.022;-1.178;2023-04-10T04:05:51;100206.58;;;5.96;100.00
57290;BME280;43523;53.022;-1.178;2023-04-10T04:06:53;100206.20;;;6.16;100.00
57290;BME280;43523;53.022;-1.178;2023-04-10T04:07:55;100201.28;;;6.35;100.00
57290;BME280;43523;53.022;-1.178;2023-04-10T04:08:58;100200.14;;;6.20;100.00
57290;BME280;43523;53.022;-1.178;2023-04-10T04:10:00;100199.79;;;5.91;100.00
57290;BME280;43523;53.022;-1.178;2023-04-10T04:11:04;100196.72;;;6.11;100.00
57290;BME280;43523;53.022;-1.178;2023-04-10T04:12:06;100192.14;;;5.70;100.00
57290;BME280;43523;53.022;-1.178;2023-04-10T04:13:08;100191.73;;;6.17;100.00
57290;BME280;43523;53.022;-1.178;2023-04-10T04:14:13;100188.90;;;6.34;100.00
57290;BME280;43523;53.022;-1.178;2023-04-10T04:15:15;100184.67;;;5.87;100.00
57290;BME280;43523;53.022;-1.178;2023-04-10T04:16:17;100185.27;;;5.87;100.00
57290;BME280;43523;53.022;-1.178;2023-04-10T04:17:19;100183.47;;;6.12;100.00
57290;BME280;43523;53.022;-1.178;2023-04-10T04:18:22;100177.21;;;5.93;100.00
57290;BME280;43523;53.022;-1.178;2023-04-10T04:19:24;100180.14;;;6.06;100.00
57290;BME280;43523;53.022;-1.178;2023-04-10T04:20:26;100179.24;;;6.18;100.00
57290;BME280;43523;53.022;-1.178;2023-04-10T04:21:29;100177.10;;;6.05;100.00
57290;BME280;43523;53.022;-1.178;2023-04-10T04:22:31;100174.55;;;5.90;100.00
57290;BME280;43523;53.022;-1.178;2023-04-10T04:23:34;100171.58;;;6.04;100.00
57290;BME280;43523;53.022;-1.178;2023-04-10T04:24:36;100170.05;;;6.43;100.00
57290;BME280;43523;53.022;-1.178;2023-04-10T04:25:38;100168.41;;;6.48;100.00
57290;BME280;43523;53.022;-1.178;2023-04-10T04:26:40;100165.54;;;6.02;100.00
57290;BME280;43523;53.022;-1.178;2023-04-10T04:27:43;100164.15;;;6.02;100.00
57290;BME280;43523;53.022;-1.178;2023-04-10T04:28:46;100164.69;;;5.73;100.00
57290;BME280;43523;53.022;-1.178;2023-04-10T04:29:49;100161.26;;;5.99;100.00
57290;BME280;43523;53.022;-1.178;2023-04-10T04:30:51;100159.82;;;6.27;100.00
57290;BME280;43523;53.022;-1.178;2023-04-10T04:31:53;100160.33;;;6.39;100.00
57290;BME280;43523;53.022;-1.178;2023-04-10T04:32:55;100156.37;;;6.54;100.00
57290;BME280;43523;53.022;-1.178;2023-04-10T04:33:58;100154.67;;;6.42;100.00
57290;BME280;43523;53.022;-1.178;2023-04-10T04:35:00;100152.49;;;6.31;100.00
57290;BME280;43523;53.022;-1.178;2023-04-10T04:36:02;100152.35;;;6.64;100.00
57290;BME280;43523;53.022;-1.178;2023-04-10T04:37:04;100155.65;;;6.28;100.00
57290;BME280;43523;53.022;-1.178;2023-04-10T04:38:06;100152.21;;;6.10;100.00
57290;BME280;43523;53.022;-1.178;2023-04-10T04:39:08;100151.50;;;6.30;100.00
57290;BME280;43523;53.022;-1.178;2023-04-10T04:40:11;100150.79;;;5.94;100.00
57290;BME280;43523;53.022;-1.178;2023-04-10T04:41:14;100145.63;;;5.88;100.00
57290;BME280;43523;53.022;-1.178;2023-04-10T04:42:16;100148.51;;;6.15;100.00
57290;BME280;43523;53.022;-1.178;2023-04-10T04:43:19;100143.54;;;6.20;100.00
57290;BME280;43523;53.022;-1.178;2023-04-10T04:44:21;100142.45;;;6.04;100.00
57290;BME280;43523;53.022;-1.178;2023-04-10T04:45:23;100142.53;;;5.97;100.00
57290;BME280;43523;53.022;-1.178;2023-04-10T04:46:26;100137.86;;;6.25;100.00
57290;BME280;43523;53.022;-1.178;2023-04-10T04:47:29;100136.79;;;5.98;100.00
57290;BME280;43523;53.022;-1.178;2023-04-10T04:48:31;100135.96;;;5.93;100.00
57290;BME280;43523;53.022;-1.178;2023-04-10T04:49:33;100134.76;;;6.06;100.00
57290;BME280;43523;53.022;-1.178;2023-04-10T04:50:35;100132.59;;;5.91;100.00
57290;BME280;43523;53.022;-1.178;2023-04-10T04:51:41;100134.05;;;6.23;100.00
57290;BME280;43523;53.022;-1.178;2023-04-10T04:52:43;100133.04;;;6.33;100.00
57290;BME280;43523;53.022;-1.178;2023-04-10T04:53:46;100132.67;;;6.31;100.00
57290;BME280;43523;53.022;-1.178;2023-04-10T04:54:49;100132.38;;;6.15;100.00
57290;BME280;43523;53.022;-1.178;2023-04-10T04:55:51;100134.41;;;6.36;100.00
57290;BME280;43523;53.022;-1.178;2023-04-10T04:56:52;100130.50;;;6.38;100.00
57290;BME280;43523;53.022;-1.178;2023-04-10T04:57:54;100128.63;;;6.83;100.00
57290;BME280;43523;53.022;-1.178;2023-04-10T04:58:56;100130.70;;;6.75;100.00
57290;BME280;43523;53.022;-1.178;2023-04-10T04:59:59;100130.23;;;6.31;100.00
57290;BME280;43523;53.022;-1.178;2023-04-10T05:01:02;100125.72;;;6.51;100.00
57290;BME280;43523;53.022;-1.178;2023-04-10T05:02:04;100118.61;;;5.94;100.00
57290;BME280;43523;53.022;-1.178;2023-04-10T05:03:06;100113.90;;;6.75;100.00
57290;BME280;43523;53.022;-1.178;2023-04-10T05:04:08;100113.87;;;6.22;100.00
57290;BME280;43523;53.022;-1.178;2023-04-10T05:05:12;100114.49;;;6.58;100.00
57290;BME280;43523;53.022;-1.178;2023-04-10T05:06:14;100111.26;;;6.51;100.00
57290;BME280;43523;53.022;-1.178;2023-04-10T05:07:16;100110.71;;;6.01;100.00
57290;BME280;43523;53.022;-1.178;2023-04-10T05:08:19;100115.30;;;6.23;100.00
57290;BME280;43523;53.022;-1.178;2023-04-10T05:09:21;100115.58;;;6.59;100.00
57290;BME280;43523;53.022;-1.178;2023-04-10T05:10:24;100116.98;;;6.46;100.00
57290;BME280;43523;53.022;-1.178;2023-04-10T05:11:26;100117.84;;;5.94;100.00
57290;BME280;43523;53.022;-1.178;2023-04-10T05:12:29;100116.71;;;6.01;100.00
57290;BME280;43523;53.022;-1.178;2023-04-10T05:13:31;100117.77;;;5.24;100.00
57290;BME280;43523;53.022;-1.178;2023-04-10T05:14:34;100119.71;;;5.57;100.00
57290;BME280;43523;53.022;-1.178;2023-04-10T05:15:36;100114.42;;;5.73;100.00
57290;BME280;43523;53.022;-1.178;2023-04-10T05:16:38;100115.38;;;5.70;100.00
57290;BME280;43523;53.022;-1.178;2023-04-10T05:17:41;100114.39;;;5.48;100.00
57290;BME280;43523;53.022;-1.178;2023-04-10T05:18:44;100115.05;;;5.26;100.00
57290;BME280;43523;53.022;-1.178;2023-04-10T05:19:47;100109.86;;;6.14;100.00
57290;BME280;43523;53.022;-1.178;2023-04-10T05:20:49;100109.99;;;5.96;100.00
57290;BME280;43523;53.022;-1.178;2023-04-10T05:21:52;100109.67;;;6.45;100.00
57290;BME280;43523;53.022;-1.178;2023-04-10T05:22:54;100111.55;;;5.72;100.00
57290;BME280;43523;53.022;-1.178;2023-04-10T05:23:56;100114.43;;;6.61;100.00
57290;BME280;43523;53.022;-1.178;2023-04-10T05:24:59;100113.51;;;6.65;100.00
57290;BME280;43523;53.022;-1.178;2023-04-10T05:26:02;100111.26;;;5.73;100.00
57290;BME280;43523;53.022;-1.178;2023-04-10T05:27:04;100108.43;;;6.35;100.00
57290;BME280;43523;53.022;-1.178;2023-04-10T05:28:06;100107.12;;;6.17;100.00